createdAt,value
2023-02-05T00:00:19.690Z,10.00
2023-02-05T00:02:47.372Z,10.13
2023-02-05T00:05:15.057Z,10.20
2023-02-05T00:07:43.128Z,10.25
2023-02-05T00:10:10.791Z,9.73
2023-02-05T00:12:38.932Z,10.88
2023-02-05T00:15:06.971Z,10.27
2023-02-05T00:17:37.248Z,11.10
2023-02-05T00:22:33.352Z,10.30
2023-02-05T00:25:01.071Z,11.05
2023-02-05T00:27:28.807Z,10.98
2023-02-05T00:29:56.665Z,11.48
2023-02-05T00:32:24.229Z,10.88
2023-02-05T00:34:52.158Z,10.55
2023-02-05T00:37:20.239Z,11.00
2023-02-05T00:39:47.781Z,10.80
2023-02-05T00:42:15.300Z,11.13
2023-02-05T00:44:42.805Z,11.60
2023-02-05T00:47:10.327Z,11.70
2023-02-05T00:49:38.442Z,12.55
2023-02-05T00:52:06.022Z,16.60
2023-02-05T00:54:33.535Z,12.05
2023-02-05T00:57:01.369Z,11.98
2023-02-05T00:59:29.423Z,12.35
2023-02-05T01:01:57.204Z,11.73
2023-02-05T01:04:24.919Z,11.40
2023-02-05T01:06:52.519Z,11.55
2023-02-05T01:09:20.464Z,11.85
2023-02-05T01:11:48.011Z,11.95
2023-02-05T01:14:15.539Z,12.57
2023-02-05T01:16:43.702Z,13.43
2023-02-05T01:19:12.106Z,12.02
2023-02-05T01:21:39.760Z,13.27
2023-02-05T01:24:08.227Z,13.10
2023-02-05T01:26:36.163Z,12.50
2023-02-05T01:29:04.533Z,12.63
2023-02-05T01:31:33.330Z,13.35
2023-02-05T01:34:01.759Z,12.90
2023-02-05T01:36:29.551Z,11.77
2023-02-05T01:38:57.008Z,13.52
2023-02-05T01:41:25.667Z,24.15
2023-02-05T01:44:10.321Z,14.80
2023-02-05T01:46:41.141Z,12.50
2023-02-05T01:49:14.676Z,14.27
2023-02-05T01:51:43.496Z,13.05
2023-02-05T01:54:11.477Z,13.52
2023-02-05T01:56:48.750Z,14.45
2023-02-05T01:59:25.687Z,13.45
2023-02-05T02:01:54.209Z,14.55
2023-02-05T02:04:42.480Z,14.95
2023-02-05T02:07:14.782Z,14.15
2023-02-05T02:09:45.434Z,13.85
2023-02-05T02:12:16.205Z,12.68
2023-02-05T02:14:48.065Z,12.57
2023-02-05T02:17:16.697Z,13.27
2023-02-05T02:20:03.388Z,12.50
2023-02-05T02:22:56.192Z,11.77
2023-02-05T02:25:59.088Z,11.65
2023-02-05T02:28:32.882Z,11.15
2023-02-05T02:31:12.642Z,10.65
2023-02-05T02:33:46.247Z,9.98
2023-02-05T02:36:21.183Z,10.48
2023-02-05T02:39:21.081Z,10.55
2023-02-05T02:42:02.441Z,10.00
2023-02-05T02:44:40.526Z,10.63
2023-02-05T02:47:34.995Z,10.23
2023-02-05T02:50:09.493Z,10.48
2023-02-05T02:52:41.231Z,11.13
2023-02-05T02:55:13.326Z,10.00
2023-02-05T02:57:49.061Z,9.80
2023-02-05T03:00:22.231Z,9.35
2023-02-05T03:02:54.491Z,9.63
2023-02-05T03:05:25.660Z,9.68
2023-02-05T03:07:59.575Z,9.20
2023-02-05T03:10:37.493Z,9.55
2023-02-05T03:13:11.288Z,10.20
2023-02-05T03:15:43.809Z,9.27
2023-02-05T03:18:13.933Z,9.27
2023-02-05T03:21:05.604Z,8.70
2023-02-05T03:23:33.228Z,7.90
2023-02-05T03:26:01.312Z,8.27
2023-02-05T03:28:38.804Z,8.18
2023-02-05T03:31:37.733Z,8.02
2023-02-05T03:34:20.792Z,7.97
2023-02-05T03:37:10.430Z,8.15
2023-02-05T03:40:02.051Z,8.13
2023-02-05T03:42:56.063Z,7.72
2023-02-05T03:45:48.271Z,7.63
2023-02-05T03:48:39.651Z,7.07
2023-02-05T03:51:28.305Z,7.88
2023-02-05T03:54:26.279Z,7.50
2023-02-05T03:57:09.942Z,8.70
2023-02-05T03:59:40.568Z,7.57
2023-02-05T04:02:08.732Z,7.05
2023-02-05T04:04:40.857Z,7.85
2023-02-05T04:07:10.882Z,8.07
2023-02-05T04:09:39.568Z,8.50
2023-02-05T04:12:10.873Z,7.30
2023-02-05T04:14:40.060Z,8.02
2023-02-05T04:17:12.380Z,7.88
2023-02-05T04:19:41.667Z,7.45
2023-02-05T04:22:11.101Z,7.53
2023-02-05T04:24:43.722Z,6.97
2023-02-05T04:27:11.382Z,8.27
2023-02-05T04:29:39.414Z,7.40
2023-02-05T04:32:07.397Z,7.88
2023-02-05T04:34:35.918Z,6.90
2023-02-05T04:37:05.149Z,8.02
2023-02-05T04:39:32.798Z,7.78
2023-02-05T04:42:01.938Z,8.98
2023-02-05T04:44:29.759Z,8.43
2023-02-05T04:46:57.421Z,7.43
2023-02-05T04:49:25.401Z,8.05
2023-02-05T04:51:52.913Z,7.97
2023-02-05T04:54:20.774Z,8.20
2023-02-05T04:56:48.356Z,8.27
2023-02-05T04:59:15.879Z,9.43
2023-02-05T05:01:43.357Z,9.52
2023-02-05T05:04:11.023Z,9.45
2023-02-05T05:06:39.565Z,12.35
2023-02-05T05:09:07.135Z,13.82
2023-02-05T05:11:39.521Z,14.05
2023-02-05T05:14:07.398Z,15.50
2023-02-05T05:16:35.009Z,15.77
2023-02-05T05:19:02.626Z,13.95
2023-02-05T05:21:30.326Z,11.85
2023-02-05T05:23:57.883Z,11.82
2023-02-05T05:26:25.519Z,11.82
2023-02-05T05:28:54.929Z,10.65
2023-02-05T05:31:23.711Z,8.48
2023-02-05T05:33:51.607Z,8.20
2023-02-05T05:36:19.308Z,8.38
2023-02-05T05:38:47.037Z,11.27
2023-02-05T05:41:43.562Z,9.25
2023-02-05T05:44:11.257Z,9.48
2023-02-05T05:46:41.368Z,9.15
2023-02-05T05:49:09.067Z,8.80
2023-02-05T05:51:36.742Z,8.15
2023-02-05T05:54:04.364Z,8.65
2023-02-05T05:56:32.104Z,8.23
2023-02-05T05:58:59.642Z,7.55
2023-02-05T06:01:27.899Z,7.75
2023-02-05T06:03:55.497Z,8.63
2023-02-05T06:06:23.037Z,7.68
2023-02-05T06:08:50.584Z,8.02
2023-02-05T06:11:18.092Z,8.13
2023-02-05T06:13:45.760Z,8.38
2023-02-05T06:16:13.785Z,7.82
2023-02-05T06:18:41.322Z,8.05
2023-02-05T06:21:10.820Z,8.90
2023-02-05T06:23:39.289Z,8.18
2023-02-05T06:26:06.935Z,7.28
2023-02-05T06:28:34.572Z,8.15
2023-02-05T06:31:02.142Z,7.82
2023-02-05T06:33:30.017Z,8.18
2023-02-05T06:35:57.785Z,7.53
2023-02-05T06:38:25.442Z,8.98
2023-02-05T06:40:53.077Z,7.82
2023-02-05T06:43:20.649Z,7.65
2023-02-05T06:45:48.629Z,7.55
2023-02-05T06:48:16.264Z,8.15
2023-02-05T06:50:43.797Z,7.70
2023-02-05T06:53:11.970Z,8.02
2023-02-05T06:55:40.085Z,7.93
2023-02-05T06:58:08.006Z,7.63
2023-02-05T07:00:36.209Z,8.23
2023-02-05T07:03:04.315Z,8.98
2023-02-05T07:05:35.150Z,11.75
2023-02-05T07:08:04.272Z,12.68
2023-02-05T07:10:31.938Z,15.97
2023-02-05T07:12:59.496Z,16.48
2023-02-05T07:15:27.545Z,17.17
2023-02-05T07:17:55.465Z,16.15
2023-02-05T07:20:23.495Z,15.77
2023-02-05T07:22:51.036Z,19.35
2023-02-05T07:25:18.642Z,20.33
2023-02-05T07:27:46.548Z,22.52
2023-02-05T07:30:14.727Z,20.40
2023-02-05T07:32:42.681Z,17.90
2023-02-05T07:35:10.224Z,15.82
2023-02-05T07:37:39.566Z,15.68
2023-02-05T07:40:07.913Z,14.50
2023-02-05T07:42:35.748Z,15.60
2023-02-05T07:45:04.946Z,14.43
2023-02-05T07:47:32.742Z,13.93
2023-02-05T07:50:00.270Z,17.33
2023-02-05T07:52:27.969Z,15.77
2023-02-05T07:54:55.717Z,16.45
2023-02-05T07:57:23.623Z,14.65
2023-02-05T07:59:51.140Z,14.15
2023-02-05T08:02:18.674Z,20.88
2023-02-05T08:04:46.267Z,19.63
2023-02-05T08:07:14.526Z,19.77
2023-02-05T08:09:42.194Z,17.30
2023-02-05T08:12:09.818Z,14.02
2023-02-05T08:14:37.430Z,13.70
2023-02-05T08:17:06.294Z,12.38
2023-02-05T08:19:34.043Z,12.15
2023-02-05T08:22:01.606Z,10.73
2023-02-05T08:24:29.328Z,10.93
2023-02-05T08:26:57.107Z,10.07
2023-02-05T08:29:24.646Z,7.90
2023-02-05T08:31:52.259Z,8.25
2023-02-05T08:34:20.873Z,8.63
2023-02-05T08:36:48.643Z,9.50
2023-02-05T08:39:16.460Z,9.18
2023-02-05T08:41:44.261Z,9.18
2023-02-05T08:44:11.785Z,8.57
2023-02-05T08:46:49.397Z,7.20
2023-02-05T08:49:18.507Z,6.90
2023-02-05T08:51:46.765Z,6.88
2023-02-05T08:54:15.336Z,7.28
2023-02-05T08:56:45.193Z,7.83
2023-02-05T08:59:13.113Z,7.45
2023-02-05T09:01:43.085Z,7.28
2023-02-05T09:04:16.891Z,9.02
2023-02-05T09:06:45.008Z,9.13
2023-02-05T09:09:14.229Z,8.82
2023-02-05T09:11:42.409Z,7.90
2023-02-05T09:14:10.277Z,8.27
2023-02-05T09:16:38.489Z,7.32
2023-02-05T09:19:06.529Z,8.38
2023-02-05T09:21:35.567Z,8.27
2023-02-05T09:24:04.204Z,7.38
2023-02-05T09:26:32.029Z,7.95
2023-02-05T09:28:59.617Z,7.65
2023-02-05T09:31:27.508Z,8.73
2023-02-05T09:33:55.925Z,7.90
2023-02-05T09:36:24.058Z,8.43
2023-02-05T09:39:02.021Z,7.10
2023-02-05T09:41:42.908Z,7.65
2023-02-05T09:44:48.958Z,8.07
2023-02-05T09:47:35.650Z,7.35
2023-02-05T09:50:15.459Z,7.63
2023-02-05T09:52:49.778Z,7.47
2023-02-05T09:55:29.989Z,7.85
2023-02-05T09:58:06.684Z,8.07
2023-02-05T10:00:42.250Z,8.73
2023-02-05T10:03:30.328Z,9.13
2023-02-05T10:06:03.754Z,9.05
2023-02-05T10:08:40.975Z,8.40
2023-02-05T10:11:20.330Z,7.22
2023-02-05T10:14:03.232Z,7.03
2023-02-05T10:16:47.391Z,7.00
2023-02-05T10:19:18.023Z,6.80
2023-02-05T10:21:55.003Z,7.63
2023-02-05T10:24:54.672Z,7.55
2023-02-05T10:27:41.697Z,8.02
2023-02-05T10:30:24.238Z,8.68
2023-02-05T10:32:59.865Z,6.80
2023-02-05T10:35:51.455Z,7.05
2023-02-05T10:38:24.758Z,6.40
2023-02-05T10:41:00.243Z,8.32
2023-02-05T10:43:34.261Z,8.05
2023-02-05T10:46:02.728Z,6.72
2023-02-05T10:48:56.647Z,6.18
2023-02-05T10:51:45.360Z,6.93
2023-02-05T10:54:16.353Z,6.78
2023-02-05T10:56:44.598Z,6.75
2023-02-05T10:59:27.021Z,7.05
2023-02-05T11:02:03.971Z,7.22
2023-02-05T11:04:39.000Z,7.60
2023-02-05T11:07:24.700Z,7.28
2023-02-05T11:09:53.361Z,7.82
2023-02-05T11:12:30.074Z,7.93
2023-02-05T11:15:00.452Z,7.00
2023-02-05T11:17:35.136Z,6.97
2023-02-05T11:20:28.485Z,7.07
2023-02-05T11:23:18.084Z,7.93
2023-02-05T11:25:57.149Z,7.60
2023-02-05T11:28:33.036Z,7.75
2023-02-05T11:31:25.571Z,8.20
2023-02-05T11:34:14.377Z,9.18
2023-02-05T11:36:53.778Z,9.68
2023-02-05T11:39:36.440Z,9.75
2023-02-05T11:42:09.627Z,18.30
2023-02-05T11:44:48.492Z,10.73
2023-02-05T11:47:27.579Z,8.57
2023-02-05T11:49:56.618Z,9.35
2023-02-05T11:52:37.495Z,7.63
2023-02-05T11:55:06.883Z,5.93
2023-02-05T11:57:39.135Z,6.50
2023-02-05T12:00:09.936Z,5.78
2023-02-05T12:02:42.677Z,5.05
2023-02-05T12:05:20.044Z,5.70
2023-02-05T12:08:26.896Z,5.95
2023-02-05T12:11:52.741Z,6.18
2023-02-05T12:14:38.280Z,7.70
2023-02-05T12:17:17.477Z,7.40
2023-02-05T12:19:57.155Z,7.97
2023-02-05T12:22:30.405Z,7.70
2023-02-05T12:25:46.246Z,7.82
2023-02-05T12:28:26.437Z,6.95
2023-02-05T12:31:24.500Z,6.82
2023-02-05T12:34:24.385Z,8.50
2023-02-05T12:37:07.015Z,8.55
2023-02-05T12:39:46.484Z,7.90
2023-02-05T12:44:53.613Z,6.82
2023-02-05T12:47:31.477Z,21.45
2023-02-05T12:50:08.057Z,7.13
2023-02-05T12:52:51.567Z,6.57
2023-02-05T12:56:03.925Z,6.72
2023-02-05T12:58:42.583Z,6.90
2023-02-05T13:01:50.177Z,7.13
2023-02-05T13:04:37.944Z,7.65
2023-02-05T13:07:29.435Z,7.13
2023-02-05T13:10:06.846Z,7.15
2023-02-05T13:12:41.842Z,6.18
2023-02-05T13:15:12.356Z,6.32
2023-02-05T13:17:49.808Z,8.00
2023-02-05T13:20:44.493Z,8.00
2023-02-05T13:23:33.506Z,9.25
2023-02-05T13:26:22.288Z,7.93
2023-02-05T13:28:55.754Z,7.70
2023-02-05T13:31:43.571Z,7.60
2023-02-05T13:34:15.409Z,8.25
2023-02-05T13:37:20.429Z,8.82
2023-02-05T13:40:14.377Z,8.30
2023-02-05T13:42:56.651Z,9.40
2023-02-05T13:45:52.605Z,9.93
2023-02-05T13:48:41.967Z,9.55
2023-02-05T13:51:28.256Z,11.52
2023-02-05T13:54:31.053Z,10.75
2023-02-05T13:57:36.466Z,9.85
2023-02-05T14:00:09.074Z,11.27
2023-02-05T14:02:48.965Z,10.35
2023-02-05T14:05:32.459Z,11.48
2023-02-05T14:08:03.314Z,11.25
2023-02-05T14:10:39.343Z,11.13
2023-02-05T14:13:28.612Z,11.52
2023-02-05T14:18:40.590Z,10.35
2023-02-05T14:21:34.619Z,9.75
2023-02-05T14:24:23.087Z,8.20
2023-02-05T14:26:53.179Z,8.67
2023-02-05T14:29:44.894Z,8.27
2023-02-05T14:32:34.138Z,8.05
2023-02-05T14:35:25.179Z,8.98
2023-02-05T14:37:56.997Z,8.88
2023-02-05T14:40:37.308Z,7.70
2023-02-05T14:43:16.915Z,8.88
2023-02-05T14:45:50.205Z,9.68
2023-02-05T14:48:28.554Z,9.55
2023-02-05T14:51:19.029Z,9.30
2023-02-05T14:53:56.283Z,9.18
2023-02-05T14:57:04.911Z,9.13
2023-02-05T14:59:43.865Z,10.35
2023-02-05T15:02:55.762Z,10.35
2023-02-05T15:05:51.107Z,10.63
2023-02-05T15:08:27.912Z,11.05
2023-02-05T15:11:37.698Z,11.45
2023-02-05T15:14:24.680Z,11.20
2023-02-05T15:17:07.857Z,12.73
2023-02-05T15:19:52.659Z,12.32
2023-02-05T15:22:35.233Z,12.50
2023-02-05T15:25:10.099Z,12.73
2023-02-05T15:27:45.439Z,11.98
2023-02-05T15:30:26.508Z,12.82
2023-02-05T15:33:05.809Z,11.65
2023-02-05T15:35:34.634Z,11.15
2023-02-05T15:38:20.094Z,13.57
2023-02-05T15:40:47.955Z,10.35
2023-02-05T15:43:19.138Z,9.55
2023-02-05T15:45:47.368Z,11.48
2023-02-05T15:48:19.112Z,9.55
2023-02-05T15:50:54.947Z,10.68
2023-02-05T15:53:43.251Z,10.38
2023-02-05T15:56:20.084Z,10.07
2023-02-05T15:58:55.049Z,10.13
2023-02-05T16:01:48.000Z,10.45
2023-02-05T16:04:20.081Z,10.25
2023-02-05T16:06:48.811Z,10.15
2023-02-05T16:09:22.233Z,9.97
2023-02-05T16:11:53.144Z,10.35
2023-02-05T16:14:33.290Z,11.38
2023-02-05T16:17:29.355Z,9.80
2023-02-05T16:20:13.903Z,10.07
2023-02-05T16:22:52.798Z,10.07
2023-02-05T16:25:47.842Z,10.68
2023-02-05T16:28:21.263Z,9.52
2023-02-05T16:30:53.367Z,12.60
2023-02-05T16:33:24.069Z,10.15
2023-02-05T16:35:52.579Z,9.35
2023-02-05T16:38:23.413Z,10.50
2023-02-05T16:40:55.067Z,9.68
2023-02-05T16:43:31.623Z,9.50
2023-02-05T16:46:08.327Z,9.38
2023-02-05T16:48:51.054Z,9.35
2023-02-05T16:51:45.944Z,9.27
2023-02-05T16:54:13.520Z,9.93
2023-02-05T16:56:56.353Z,10.07
2023-02-05T16:59:28.414Z,8.68
2023-02-05T17:01:56.567Z,9.38
2023-02-05T17:04:29.810Z,9.85
2023-02-05T17:07:00.404Z,8.80
2023-02-05T17:09:33.391Z,9.43
2023-02-05T17:12:20.241Z,8.80
2023-02-05T17:14:55.620Z,9.15
2023-02-05T17:17:25.892Z,8.48
2023-02-05T17:20:05.180Z,8.93
2023-02-05T17:22:34.788Z,9.52
2023-02-05T17:27:33.167Z,8.75
2023-02-05T17:30:01.053Z,9.25
2023-02-05T17:32:30.067Z,9.13
2023-02-05T17:34:59.964Z,8.77
2023-02-05T17:37:27.554Z,9.52
2023-02-05T17:39:56.810Z,9.48
2023-02-05T17:42:25.940Z,13.32
2023-02-05T17:47:21.600Z,8.52
2023-02-05T17:49:49.323Z,9.07
2023-02-05T17:52:18.778Z,9.05
2023-02-05T17:54:49.922Z,9.13
2023-02-05T17:57:22.538Z,9.18
2023-02-05T17:59:53.378Z,9.52
2023-02-05T18:02:21.473Z,10.02
2023-02-05T18:07:35.201Z,9.48
2023-02-05T18:10:06.138Z,9.48
2023-02-05T18:12:34.198Z,9.25
2023-02-05T18:15:01.850Z,8.88
2023-02-05T18:17:29.905Z,9.70
2023-02-05T18:19:57.529Z,9.07
2023-02-05T18:22:25.177Z,9.95
2023-02-05T18:24:55.830Z,9.70
2023-02-05T18:27:23.998Z,9.48
2023-02-05T18:29:51.766Z,9.70
2023-02-05T18:32:19.395Z,9.65
2023-02-05T18:34:47.160Z,10.90
2023-02-05T18:37:16.704Z,9.48
2023-02-05T18:39:45.762Z,9.18
2023-02-05T18:44:42.207Z,9.38
2023-02-05T18:47:11.432Z,9.13
2023-02-05T18:49:39.162Z,9.57
2023-02-05T18:52:07.315Z,8.77
2023-02-05T18:54:35.414Z,9.40
2023-02-05T18:57:03.220Z,9.43
2023-02-05T18:59:31.307Z,10.18
2023-02-05T19:01:58.911Z,11.35
2023-02-05T19:04:28.005Z,12.98
2023-02-05T19:06:55.690Z,14.07
2023-02-05T19:09:24.890Z,15.48
2023-02-05T19:11:55.392Z,15.32
2023-02-05T19:14:25.067Z,13.57
2023-02-05T19:16:54.627Z,17.40
2023-02-05T19:19:24.743Z,14.88
2023-02-05T19:22:00.064Z,13.35
2023-02-05T19:24:29.039Z,13.82
2023-02-05T19:26:59.051Z,17.58
2023-02-05T19:29:27.570Z,17.48
2023-02-05T19:31:58.610Z,15.40
2023-02-05T19:34:27.841Z,21.63
2023-02-05T19:36:58.511Z,20.83
2023-02-05T19:39:26.291Z,24.08
2023-02-05T19:41:54.130Z,19.70
2023-02-05T19:44:22.426Z,19.23
2023-02-05T19:46:51.136Z,18.63
2023-02-05T19:49:21.807Z,18.83
2023-02-05T19:51:54.131Z,19.55
2023-02-05T19:54:23.004Z,20.98
2023-02-05T19:56:51.424Z,20.77
2023-02-05T19:59:19.732Z,21.77
2023-02-05T20:01:47.732Z,21.15
2023-02-05T20:04:22.356Z,19.40
2023-02-05T20:06:52.220Z,19.33
2023-02-05T20:09:20.221Z,22.20
2023-02-05T20:11:49.920Z,21.65
2023-02-05T20:14:17.807Z,22.42
2023-02-05T20:16:45.946Z,24.38
2023-02-05T20:19:17.415Z,21.23
2023-02-05T20:21:46.762Z,20.90
2023-02-05T20:24:16.349Z,16.80
2023-02-05T20:26:47.867Z,19.65
2023-02-05T20:29:34.742Z,21.20
2023-02-05T20:32:02.654Z,21.00
2023-02-05T20:34:31.233Z,19.65
2023-02-05T20:37:02.368Z,18.90
2023-02-05T20:39:31.091Z,17.02
2023-02-05T20:41:59.739Z,15.43
2023-02-05T20:44:31.041Z,27.75
2023-02-05T20:46:58.761Z,11.82
2023-02-05T20:49:26.565Z,11.90
2023-02-05T20:51:54.694Z,10.73
2023-02-05T20:54:24.469Z,10.35
2023-02-05T20:56:56.899Z,9.90
2023-02-05T20:59:26.573Z,10.07
2023-02-05T21:04:22.116Z,10.18
2023-02-05T21:06:49.734Z,10.65
2023-02-05T21:09:17.384Z,10.13
2023-02-05T21:11:45.294Z,12.77
2023-02-05T21:14:17.283Z,13.63
2023-02-05T21:16:45.247Z,17.95
2023-02-05T21:19:13.580Z,14.75
2023-02-05T21:21:41.650Z,13.80
2023-02-05T21:24:12.910Z,16.25
2023-02-05T21:26:43.082Z,13.63
2023-02-05T21:29:14.385Z,13.40
2023-02-05T21:31:49.200Z,13.80
2023-02-05T21:34:21.900Z,14.00
2023-02-05T21:36:50.383Z,14.65
2023-02-05T21:39:21.679Z,13.40
2023-02-05T21:41:53.415Z,11.88
2023-02-05T21:44:21.678Z,13.13
2023-02-05T21:46:49.672Z,14.35
2023-02-05T21:49:17.308Z,14.18
2023-02-05T21:51:44.848Z,11.93
2023-02-05T21:54:12.408Z,12.88
2023-02-05T21:56:42.240Z,17.20
2023-02-05T21:59:11.757Z,17.17
2023-02-05T22:01:40.169Z,20.55
2023-02-05T22:04:12.383Z,18.70
2023-02-05T22:06:40.964Z,18.17
2023-02-05T22:09:14.284Z,18.38
2023-02-05T22:11:43.528Z,21.52
2023-02-05T22:14:11.583Z,23.87
2023-02-05T22:16:39.393Z,19.73
2023-02-05T22:19:07.937Z,21.92
2023-02-05T22:21:41.280Z,23.13
2023-02-05T22:24:14.166Z,22.30
2023-02-05T22:26:42.239Z,19.17
2023-02-05T22:29:21.050Z,18.20
2023-02-05T22:31:54.138Z,19.43
2023-02-05T22:34:21.969Z,18.63
2023-02-05T22:36:49.893Z,17.77
2023-02-05T22:39:17.470Z,18.63
2023-02-05T22:41:45.359Z,17.75
2023-02-05T22:44:13.048Z,17.73
2023-02-05T22:46:43.604Z,18.23
2023-02-05T22:49:15.324Z,16.00
2023-02-05T22:51:44.058Z,17.77
2023-02-05T22:54:13.442Z,18.02
2023-02-05T22:56:42.061Z,16.55
2023-02-05T22:59:09.669Z,16.83
2023-02-05T23:01:39.200Z,14.68
2023-02-05T23:04:08.909Z,12.55
2023-02-05T23:06:39.781Z,13.18
2023-02-05T23:09:16.520Z,9.90
2023-02-05T23:11:45.344Z,10.07
2023-02-05T23:14:17.349Z,9.00
2023-02-05T23:16:47.131Z,8.88
2023-02-05T23:19:19.035Z,10.15
2023-02-05T23:21:47.409Z,11.80
2023-02-05T23:24:15.977Z,14.88
2023-02-05T23:26:46.624Z,16.23
2023-02-05T23:29:16.020Z,16.20
2023-02-05T23:34:11.515Z,19.10
2023-02-05T23:36:39.627Z,17.08
2023-02-05T23:39:07.146Z,18.02
2023-02-05T23:41:39.848Z,17.73
2023-02-05T23:44:17.816Z,16.33
2023-02-05T23:46:47.652Z,15.48
2023-02-05T23:49:17.049Z,14.93
2023-02-05T23:51:44.533Z,17.33
2023-02-05T23:54:12.550Z,16.15
2023-02-05T23:56:41.805Z,16.13
2023-02-05T23:59:11.198Z,16.93
